sensor_id;sensor_type;location;lat;lon;timestamp;P1;durP1;ratioP1;P2;durP2;ratioP2
31095;SDS011;17749;51.962;8.560;2023-12-07T06:00:46;86.43;;;35.78;;
31095;SDS011;17749;51.962;8.560;2023-12-07T06:03:13;98.25;;;40.15;;
31095;SDS011;17749;51.962;8.560;2023-12-07T06:05:42;100.93;;;39.95;;
31095;SDS011;17749;51.962;8.560;2023-12-07T06:08:11;108.30;;;45.17;;
31095;SDS011;17749;51.962;8.560;2023-12-07T06:10:47;98.60;;;38.95;;
31095;SDS011;17749;51.962;8.560;2023-12-07T06:13:14;94.95;;;39.45;;
31095;SDS011;17749;51.962;8.560;2023-12-07T06:15:41;112.18;;;44.22;;
31095;SDS011;17749;51.962;8.560;2023-12-07T06:18:08;105.75;;;40.35;;
31095;SDS011;17749;51.962;8.560;2023-12-07T06:20:36;98.05;;;39.42;;
31095;SDS011;17749;51.962;8.560;2023-12-07T06:23:03;105.32;;;41.55;;
31095;SDS011;17749;51.962;8.560;2023-12-07T06:25:30;111.72;;;41.78;;
31095;SDS011;17749;51.962;8.560;2023-12-07T06:27:58;107.63;;;40.67;;
31095;SDS011;17749;51.962;8.560;2023-12-07T06:30:24;114.32;;;41.20;;
31095;SDS011;17749;51.962;8.560;2023-12-07T06:32:51;113.00;;;42.30;;
31095;SDS011;17749;51.962;8.560;2023-12-07T06:35:18;123.82;;;45.97;;
31095;SDS011;17749;51.962;8.560;2023-12-07T06:37:46;116.60;;;42.60;;
31095;SDS011;17749;51.962;8.560;2023-12-07T06:40:13;113.28;;;44.05;;
31095;SDS011;17749;51.962;8.560;2023-12-07T06:42:40;142.32;;;46.05;;
31095;SDS011;17749;51.962;8.560;2023-12-07T06:45:07;128.98;;;44.78;;
31095;SDS011;17749;51.962;8.560;2023-12-07T06:47:37;128.65;;;45.58;;
31095;SDS011;17749;51.962;8.560;2023-12-07T06:50:05;125.80;;;45.63;;
31095;SDS011;17749;51.962;8.560;2023-12-07T06:52:40;138.95;;;48.90;;
31095;SDS011;17749;51.962;8.560;2023-12-07T06:55:06;115.53;;;41.13;;
31095;SDS011;17749;51.962;8.560;2023-12-07T06:57:36;135.95;;;46.78;;
31095;SDS011;17749;51.962;8.560;2023-12-07T07:00:03;131.07;;;44.92;;
31095;SDS011;17749;51.962;8.560;2023-12-07T07:02:32;129.98;;;46.83;;
31095;SDS011;17749;51.962;8.560;2023-12-07T07:04:59;124.72;;;44.80;;
31095;SDS011;17749;51.962;8.560;2023-12-07T07:07:26;124.97;;;44.72;;
31095;SDS011;17749;51.962;8.560;2023-12-07T07:09:53;127.40;;;43.67;;
31095;SDS011;17749;51.962;8.560;2023-12-07T07:12:21;139.40;;;47.13;;
31095;SDS011;17749;51.962;8.560;2023-12-07T07:14:49;144.15;;;46.70;;
31095;SDS011;17749;51.962;8.560;2023-12-07T07:17:16;128.07;;;45.33;;
31095;SDS011;17749;51.962;8.560;2023-12-07T07:19:44;147.50;;;48.75;;
31095;SDS011;17749;51.962;8.560;2023-12-07T07:22:12;143.40;;;47.60;;
31095;SDS011;17749;51.962;8.560;2023-12-07T07:24:39;143.55;;;48.55;;
31095;SDS011;17749;51.962;8.560;2023-12-07T07:27:06;145.82;;;49.45;;
31095;SDS011;17749;51.962;8.560;2023-12-07T07:29:33;131.45;;;45.58;;
31095;SDS011;17749;51.962;8.560;2023-12-07T07:32:00;150.05;;;47.58;;
31095;SDS011;17749;51.962;8.560;2023-12-07T07:34:27;154.68;;;47.92;;
31095;SDS011;17749;51.962;8.560;2023-12-07T07:36:54;138.60;;;46.83;;
31095;SDS011;17749;51.962;8.560;2023-12-07T07:39:21;142.10;;;46.65;;
31095;SDS011;17749;51.962;8.560;2023-12-07T07:41:48;133.65;;;45.67;;
31095;SDS011;17749;51.962;8.560;2023-12-07T07:44:15;146.43;;;46.58;;
31095;SDS011;17749;51.962;8.560;2023-12-07T07:46:43;136.93;;;47.35;;
31095;SDS011;17749;51.962;8.560;2023-12-07T07:49:10;148.25;;;49.40;;
31095;SDS011;17749;51.962;8.560;2023-12-07T07:51:37;130.50;;;45.22;;
31095;SDS011;17749;51.962;8.560;2023-12-07T07:54:12;135.63;;;48.60;;
31095;SDS011;17749;51.962;8.560;2023-12-07T07:56:42;140.00;;;45.08;;
31095;SDS011;17749;51.962;8.560;2023-12-07T07:59:12;145.52;;;42.72;;
31095;SDS011;17749;51.962;8.560;2023-12-07T08:01:42;129.45;;;41.65;;
31095;SDS011;17749;51.962;8.560;2023-12-07T08:06:43;130.40;;;40.50;;
31095;SDS011;17749;51.962;8.560;2023-12-07T08:09:19;127.35;;;41.80;;
31095;SDS011;17749;51.962;8.560;2023-12-07T08:11:51;139.73;;;43.88;;
31095;SDS011;17749;51.962;8.560;2023-12-07T08:14:18;130.95;;;40.97;;
31095;SDS011;17749;51.962;8.560;2023-12-07T08:16:47;131.23;;;41.78;;
31095;SDS011;17749;51.962;8.560;2023-12-07T08:19:16;138.80;;;44.10;;
31095;SDS011;17749;51.962;8.560;2023-12-07T08:21:46;123.65;;;40.53;;
31095;SDS011;17749;51.962;8.560;2023-12-07T08:24:16;131.88;;;41.85;;
31095;SDS011;17749;51.962;8.560;2023-12-07T08:26:58;127.50;;;41.13;;
31095;SDS011;17749;51.962;8.560;2023-12-07T08:29:39;124.57;;;40.60;;
31095;SDS011;17749;51.962;8.560;2023-12-07T08:32:09;111.70;;;38.20;;
31095;SDS011;17749;51.962;8.560;2023-12-07T08:34:53;118.05;;;39.63;;
31095;SDS011;17749;51.962;8.560;2023-12-07T08:37:59;119.15;;;38.97;;
31095;SDS011;17749;51.962;8.560;2023-12-07T08:40:45;126.45;;;39.72;;
31095;SDS011;17749;51.962;8.560;2023-12-07T08:43:12;120.40;;;44.47;;
31095;SDS011;17749;51.962;8.560;2023-12-07T08:45:40;126.57;;;39.42;;
31095;SDS011;17749;51.962;8.560;2023-12-07T08:48:13;123.95;;;42.80;;
31095;SDS011;17749;51.962;8.560;2023-12-07T08:50:49;100.95;;;37.63;;
31095;SDS011;17749;51.962;8.560;2023-12-07T08:53:18;108.97;;;37.08;;
31095;SDS011;17749;51.962;8.560;2023-12-07T08:55:51;116.20;;;38.55;;
31095;SDS011;17749;51.962;8.560;2023-12-07T08:58:19;127.35;;;39.58;;
31095;SDS011;17749;51.962;8.560;2023-12-07T09:00:50;105.10;;;38.25;;
31095;SDS011;17749;51.962;8.560;2023-12-07T09:03:18;83.10;;;33.00;;
31095;SDS011;17749;51.962;8.560;2023-12-07T09:05:45;108.22;;;36.47;;
31095;SDS011;17749;51.962;8.560;2023-12-07T09:08:13;98.90;;;35.72;;
31095;SDS011;17749;51.962;8.560;2023-12-07T09:10:40;90.68;;;34.75;;
31095;SDS011;17749;51.962;8.560;2023-12-07T09:13:07;91.97;;;32.70;;
31095;SDS011;17749;51.962;8.560;2023-12-07T09:15:34;92.45;;;33.15;;
31095;SDS011;17749;51.962;8.560;2023-12-07T09:18:03;84.28;;;31.80;;
31095;SDS011;17749;51.962;8.560;2023-12-07T09:20:31;81.70;;;31.65;;
31095;SDS011;17749;51.962;8.560;2023-12-07T09:22:58;83.82;;;31.17;;
31095;SDS011;17749;51.962;8.560;2023-12-07T09:25:25;77.32;;;29.08;;
31095;SDS011;17749;51.962;8.560;2023-12-07T09:27:56;81.25;;;29.15;;
31095;SDS011;17749;51.962;8.560;2023-12-07T09:30:23;79.05;;;31.45;;
31095;SDS011;17749;51.962;8.560;2023-12-07T09:32:50;75.93;;;28.92;;
31095;SDS011;17749;51.962;8.560;2023-12-07T09:35:17;78.30;;;29.95;;
31095;SDS011;17749;51.962;8.560;2023-12-07T09:37:50;81.13;;;28.63;;
31095;SDS011;17749;51.962;8.560;2023-12-07T09:40:18;69.60;;;29.05;;
31095;SDS011;17749;51.962;8.560;2023-12-07T09:42:48;67.80;;;30.20;;
31095;SDS011;17749;51.962;8.560;2023-12-07T09:45:17;62.50;;;25.85;;
31095;SDS011;17749;51.962;8.560;2023-12-07T09:47:47;76.75;;;28.80;;
31095;SDS011;17749;51.962;8.560;2023-12-07T09:50:25;68.93;;;26.60;;
31095;SDS011;17749;51.962;8.560;2023-12-07T09:52:55;68.80;;;29.23;;
31095;SDS011;17749;51.962;8.560;2023-12-07T09:55:34;65.10;;;26.67;;
31095;SDS011;17749;51.962;8.560;2023-12-07T09:58:04;64.43;;;29.70;;
31095;SDS011;17749;51.962;8.560;2023-12-07T10:00:34;68.68;;;28.75;;
31095;SDS011;17749;51.962;8.560;2023-12-07T10:03:02;65.13;;;27.20;;
31095;SDS011;17749;51.962;8.560;2023-12-07T10:05:29;69.47;;;30.20;;
31095;SDS011;17749;51.962;8.560;2023-12-07T10:07:56;72.05;;;27.65;;
31095;SDS011;17749;51.962;8.560;2023-12-07T10:10:23;64.00;;;28.08;;
31095;SDS011;17749;51.962;8.560;2023-12-07T10:12:54;61.33;;;28.08;;
31095;SDS011;17749;51.962;8.560;2023-12-07T10:15:22;57.20;;;24.65;;
31095;SDS011;17749;51.962;8.560;2023-12-07T10:20:24;61.38;;;25.50;;
31095;SDS011;17749;51.962;8.560;2023-12-07T10:23:03;57.83;;;24.17;;
31095;SDS011;17749;51.962;8.560;2023-12-07T10:26:02;61.72;;;25.88;;
31095;SDS011;17749;51.962;8.560;2023-12-07T10:28:29;55.10;;;25.75;;
31095;SDS011;17749;51.962;8.560;2023-12-07T10:30:56;52.75;;;24.85;;
31095;SDS011;17749;51.962;8.560;2023-12-07T10:33:23;55.22;;;23.92;;
31095;SDS011;17749;51.962;8.560;2023-12-07T10:35:57;59.50;;;25.15;;
31095;SDS011;17749;51.962;8.560;2023-12-07T10:39:05;62.42;;;25.45;;
31095;SDS011;17749;51.962;8.560;2023-12-07T10:41:50;58.85;;;25.50;;
31095;SDS011;17749;51.962;8.560;2023-12-07T10:44:23;56.45;;;27.02;;
31095;SDS011;17749;51.962;8.560;2023-12-07T10:47:11;62.05;;;25.70;;
31095;SDS011;17749;51.962;8.560;2023-12-07T10:49:44;56.28;;;24.17;;
31095;SDS011;17749;51.962;8.560;2023-12-07T10:52:16;50.85;;;22.80;;
31095;SDS011;17749;51.962;8.560;2023-12-07T10:55:27;60.92;;;26.42;;
31095;SDS011;17749;51.962;8.560;2023-12-07T10:57:47;51.45;;;24.80;;
31095;SDS011;17749;51.962;8.560;2023-12-07T11:00:14;55.63;;;25.83;;
31095;SDS011;17749;51.962;8.560;2023-12-07T11:02:42;44.38;;;22.83;;
31095;SDS011;17749;51.962;8.560;2023-12-07T11:05:11;57.28;;;24.73;;
31095;SDS011;17749;51.962;8.560;2023-12-07T11:08:22;53.90;;;24.85;;
31095;SDS011;17749;51.962;8.560;2023-12-07T11:10:36;53.78;;;25.73;;
31095;SDS011;17749;51.962;8.560;2023-12-07T11:13:25;52.25;;;24.17;;
31095;SDS011;17749;51.962;8.560;2023-12-07T11:15:56;53.22;;;24.13;;
31095;SDS011;17749;51.962;8.560;2023-12-07T11:18:27;51.03;;;23.20;;
31095;SDS011;17749;51.962;8.560;2023-12-07T11:20:55;48.72;;;21.23;;
31095;SDS011;17749;51.962;8.560;2023-12-07T11:23:23;44.47;;;19.70;;
31095;SDS011;17749;51.962;8.560;2023-12-07T11:25:51;44.25;;;19.42;;
31095;SDS011;17749;51.962;8.560;2023-12-07T11:28:19;43.80;;;19.67;;
31095;SDS011;17749;51.962;8.560;2023-12-07T11:31:01;38.47;;;19.60;;
31095;SDS011;17749;51.962;8.560;2023-12-07T11:33:58;43.20;;;19.63;;
31095;SDS011;17749;51.962;8.560;2023-12-07T11:36:45;50.75;;;21.65;;
31095;SDS011;17749;51.962;8.560;2023-12-07T11:39:35;48.03;;;20.98;;
31095;SDS011;17749;51.962;8.560;2023-12-07T11:42:19;43.90;;;20.30;;
31095;SDS011;17749;51.962;8.560;2023-12-07T11:44:52;40.20;;;20.05;;
31095;SDS011;17749;51.962;8.560;2023-12-07T11:47:38;46.97;;;19.83;;
31095;SDS011;17749;51.962;8.560;2023-12-07T11:53:35;37.38;;;19.95;;
31095;SDS011;17749;51.962;8.560;2023-12-07T11:56:14;44.38;;;19.65;;
31095;SDS011;17749;51.962;8.560;2023-12-07T11:58:50;40.85;;;21.70;;
31095;SDS011;17749;51.962;8.560;2023-12-07T12:01:17;47.72;;;20.33;;
31095;SDS011;17749;51.962;8.560;2023-12-07T12:03:44;39.92;;;19.45;;
31095;SDS011;17749;51.962;8.560;2023-12-07T12:06:11;43.42;;;19.60;;
31095;SDS011;17749;51.962;8.560;2023-12-07T12:08:42;42.80;;;19.42;;
31095;SDS011;17749;51.962;8.560;2023-12-07T12:11:10;41.05;;;21.02;;
31095;SDS011;17749;51.962;8.560;2023-12-07T12:13:37;38.33;;;19.48;;
31095;SDS011;17749;51.962;8.560;2023-12-07T12:16:05;43.95;;;21.98;;
31095;SDS011;17749;51.962;8.560;2023-12-07T12:18:33;35.78;;;17.77;;
31095;SDS011;17749;51.962;8.560;2023-12-07T12:21:01;40.60;;;20.20;;
31095;SDS011;17749;51.962;8.560;2023-12-07T12:23:29;40.22;;;19.42;;
31095;SDS011;17749;51.962;8.560;2023-12-07T12:25:56;39.83;;;23.55;;
31095;SDS011;17749;51.962;8.560;2023-12-07T12:28:24;39.10;;;20.73;;
31095;SDS011;17749;51.962;8.560;2023-12-07T12:30:52;41.95;;;21.10;;
31095;SDS011;17749;51.962;8.560;2023-12-07T12:33:20;42.47;;;22.35;;
31095;SDS011;17749;51.962;8.560;2023-12-07T12:35:58;41.92;;;22.48;;
31095;SDS011;17749;51.962;8.560;2023-12-07T12:38:30;35.88;;;18.70;;
31095;SDS011;17749;51.962;8.560;2023-12-07T12:41:08;35.65;;;19.60;;
31095;SDS011;17749;51.962;8.560;2023-12-07T12:43:35;42.60;;;19.35;;
31095;SDS011;17749;51.962;8.560;2023-12-07T12:46:03;43.78;;;21.05;;
31095;SDS011;17749;51.962;8.560;2023-12-07T12:48:32;47.75;;;23.40;;
31095;SDS011;17749;51.962;8.560;2023-12-07T12:51:12;40.13;;;21.60;;
31095;SDS011;17749;51.962;8.560;2023-12-07T12:53:43;44.95;;;20.65;;
31095;SDS011;17749;51.962;8.560;2023-12-07T12:56:18;40.45;;;20.40;;
31095;SDS011;17749;51.962;8.560;2023-12-07T12:58:46;36.10;;;18.40;;
31095;SDS011;17749;51.962;8.560;2023-12-07T13:01:13;37.80;;;18.15;;
31095;SDS011;17749;51.962;8.560;2023-12-07T13:03:40;40.13;;;19.08;;
31095;SDS011;17749;51.962;8.560;2023-12-07T13:06:07;35.05;;;16.30;;
31095;SDS011;17749;51.962;8.560;2023-12-07T13:08:34;35.03;;;18.40;;
31095;SDS011;17749;51.962;8.560;2023-12-07T13:11:01;36.03;;;17.48;;
31095;SDS011;17749;51.962;8.560;2023-12-07T13:13:29;34.03;;;17.77;;
31095;SDS011;17749;51.962;8.560;2023-12-07T13:15:56;35.35;;;17.00;;
31095;SDS011;17749;51.962;8.560;2023-12-07T13:18:23;34.95;;;18.67;;
31095;SDS011;17749;51.962;8.560;2023-12-07T13:20:50;33.83;;;17.55;;
31095;SDS011;17749;51.962;8.560;2023-12-07T13:23:22;32.47;;;17.13;;
31095;SDS011;17749;51.962;8.560;2023-12-07T13:25:49;33.08;;;16.55;;
31095;SDS011;17749;51.962;8.560;2023-12-07T13:28:16;38.47;;;17.77;;
31095;SDS011;17749;51.962;8.560;2023-12-07T13:30:44;32.00;;;16.45;;
31095;SDS011;17749;51.962;8.560;2023-12-07T13:33:11;32.47;;;16.75;;
31095;SDS011;17749;51.962;8.560;2023-12-07T13:35:53;33.30;;;17.80;;
31095;SDS011;17749;51.962;8.560;2023-12-07T13:38:22;40.60;;;18.02;;
31095;SDS011;17749;51.962;8.560;2023-12-07T13:40:50;34.63;;;17.17;;
31095;SDS011;17749;51.962;8.560;2023-12-07T13:43:17;35.00;;;16.38;;
31095;SDS011;17749;51.962;8.560;2023-12-07T13:45:45;29.70;;;15.98;;
31095;SDS011;17749;51.962;8.560;2023-12-07T13:48:12;32.47;;;15.90;;
31095;SDS011;17749;51.962;8.560;2023-12-07T13:50:40;30.13;;;14.25;;
31095;SDS011;17749;51.962;8.560;2023-12-07T13:53:09;27.02;;;14.07;;
31095;SDS011;17749;51.962;8.560;2023-12-07T13:55:40;30.80;;;14.63;;
31095;SDS011;17749;51.962;8.560;2023-12-07T13:58:07;25.98;;;13.77;;
31095;SDS011;17749;51.962;8.560;2023-12-07T14:00:39;31.27;;;14.68;;
31095;SDS011;17749;51.962;8.560;2023-12-07T14:03:12;30.52;;;14.23;;
31095;SDS011;17749;51.962;8.560;2023-12-07T14:05:39;30.92;;;14.55;;
31095;SDS011;17749;51.962;8.560;2023-12-07T14:08:07;35.83;;;18.02;;
31095;SDS011;17749;51.962;8.560;2023-12-07T14:10:34;34.13;;;17.13;;
31095;SDS011;17749;51.962;8.560;2023-12-07T14:13:02;37.05;;;15.85;;
31095;SDS011;17749;51.962;8.560;2023-12-07T14:15:29;35.67;;;16.85;;
31095;SDS011;17749;51.962;8.560;2023-12-07T14:18:10;30.95;;;14.27;;
31095;SDS011;17749;51.962;8.560;2023-12-07T14:20:40;30.52;;;14.10;;
31095;SDS011;17749;51.962;8.560;2023-12-07T14:23:28;30.17;;;14.93;;
31095;SDS011;17749;51.962;8.560;2023-12-07T14:25:55;32.15;;;14.88;;
31095;SDS011;17749;51.962;8.560;2023-12-07T14:28:29;33.00;;;14.45;;
31095;SDS011;17749;51.962;8.560;2023-12-07T14:30:57;26.63;;;14.32;;
31095;SDS011;17749;51.962;8.560;2023-12-07T14:33:26;31.90;;;17.07;;
31095;SDS011;17749;51.962;8.560;2023-12-07T14:35:53;31.52;;;18.70;;
31095;SDS011;17749;51.962;8.560;2023-12-07T14:38:20;29.08;;;14.70;;
31095;SDS011;17749;51.962;8.560;2023-12-07T14:40:47;36.40;;;17.05;;
31095;SDS011;17749;51.962;8.560;2023-12-07T14:43:16;29.70;;;17.57;;
31095;SDS011;17749;51.962;8.560;2023-12-07T14:45:45;27.13;;;15.50;;
31095;SDS011;17749;51.962;8.560;2023-12-07T14:48:12;27.85;;;15.88;;
31095;SDS011;17749;51.962;8.560;2023-12-07T14:50:39;35.17;;;17.05;;
31095;SDS011;17749;51.962;8.560;2023-12-07T14:53:07;29.33;;;16.05;;
31095;SDS011;17749;51.962;8.560;2023-12-07T14:55:33;26.77;;;13.25;;
31095;SDS011;17749;51.962;8.560;2023-12-07T14:58:00;29.35;;;14.70;;
31095;SDS011;17749;51.962;8.560;2023-12-07T15:00:27;28.88;;;15.68;;
31095;SDS011;17749;51.962;8.560;2023-12-07T15:02:55;28.27;;;15.02;;
31095;SDS011;17749;51.962;8.560;2023-12-07T15:05:23;30.08;;;14.82;;
31095;SDS011;17749;51.962;8.560;2023-12-07T15:07:50;30.67;;;14.93;;
31095;SDS011;17749;51.962;8.560;2023-12-07T15:10:17;31.25;;;15.15;;
31095;SDS011;17749;51.962;8.560;2023-12-07T15:12:45;35.30;;;16.23;;
31095;SDS011;17749;51.962;8.560;2023-12-07T15:15:12;29.67;;;14.07;;
31095;SDS011;17749;51.962;8.560;2023-12-07T15:17:39;24.98;;;14.25;;
31095;SDS011;17749;51.962;8.560;2023-12-07T15:20:08;30.60;;;14.60;;
31095;SDS011;17749;51.962;8.560;2023-12-07T15:22:37;29.08;;;13.45;;
31095;SDS011;17749;51.962;8.560;2023-12-07T15:25:06;27.42;;;14.43;;
31095;SDS011;17749;51.962;8.560;2023-12-07T15:27:35;24.25;;;12.55;;
31095;SDS011;17749;51.962;8.560;2023-12-07T15:30:03;25.25;;;14.02;;
31095;SDS011;17749;51.962;8.560;2023-12-07T15:32:33;30.23;;;15.07;;
31095;SDS011;17749;51.962;8.560;2023-12-07T15:35:01;26.95;;;14.70;;
31095;SDS011;17749;51.962;8.560;2023-12-07T15:37:28;23.27;;;13.15;;
31095;SDS011;17749;51.962;8.560;2023-12-07T15:39:55;24.42;;;13.77;;
31095;SDS011;17749;51.962;8.560;2023-12-07T15:42:22;24.95;;;11.27;;
31095;SDS011;17749;51.962;8.560;2023-12-07T15:44:49;24.23;;;10.88;;
31095;SDS011;17749;51.962;8.560;2023-12-07T15:47:17;20.02;;;10.60;;
31095;SDS011;17749;51.962;8.560;2023-12-07T15:49:44;20.52;;;11.43;;
31095;SDS011;17749;51.962;8.560;2023-12-07T15:52:11;23.48;;;11.20;;
31095;SDS011;17749;51.962;8.560;2023-12-07T15:54:38;18.48;;;10.02;;
31095;SDS011;17749;51.962;8.560;2023-12-07T15:57:07;20.83;;;9.70;;
31095;SDS011;17749;51.962;8.560;2023-12-07T15:59:36;22.10;;;10.45;;
31095;SDS011;17749;51.962;8.560;2023-12-07T16:02:04;23.10;;;10.88;;
31095;SDS011;17749;51.962;8.560;2023-12-07T16:04:31;21.48;;;10.70;;
31095;SDS011;17749;51.962;8.560;2023-12-07T16:07:03;21.65;;;12.02;;
31095;SDS011;17749;51.962;8.560;2023-12-07T16:09:35;23.17;;;11.55;;
31095;SDS011;17749;51.962;8.560;2023-12-07T16:12:04;28.37;;;12.73;;
31095;SDS011;17749;51.962;8.560;2023-12-07T16:14:33;28.95;;;12.98;;
31095;SDS011;17749;51.962;8.560;2023-12-07T16:17:01;24.35;;;11.57;;
31095;SDS011;17749;51.962;8.560;2023-12-07T16:19:29;24.80;;;12.70;;
31095;SDS011;17749;51.962;8.560;2023-12-07T16:21:56;22.40;;;11.95;;
31095;SDS011;17749;51.962;8.560;2023-12-07T16:24:24;28.38;;;12.18;;
31095;SDS011;17749;51.962;8.560;2023-12-07T16:26:51;22.23;;;12.80;;
31095;SDS011;17749;51.962;8.560;2023-12-07T16:29:21;26.58;;;13.18;;
31095;SDS011;17749;51.962;8.560;2023-12-07T16:31:49;27.13;;;12.65;;
31095;SDS011;17749;51.962;8.560;2023-12-07T16:34:17;24.90;;;12.40;;
31095;SDS011;17749;51.962;8.560;2023-12-07T16:36:44;26.85;;;12.98;;
31095;SDS011;17749;51.962;8.560;2023-12-07T16:39:12;30.27;;;13.20;;
31095;SDS011;17749;51.962;8.560;2023-12-07T16:41:40;25.17;;;11.87;;
31095;SDS011;17749;51.962;8.560;2023-12-07T16:44:17;22.85;;;11.95;;
31095;SDS011;17749;51.962;8.560;2023-12-07T16:46:45;21.50;;;11.40;;
31095;SDS011;17749;51.962;8.560;2023-12-07T16:49:12;25.17;;;11.55;;
31095;SDS011;17749;51.962;8.560;2023-12-07T16:51:40;24.87;;;12.07;;
31095;SDS011;17749;51.962;8.560;2023-12-07T16:54:08;24.60;;;12.80;;
31095;SDS011;17749;51.962;8.560;2023-12-07T16:56:35;27.58;;;12.60;;
31095;SDS011;17749;51.962;8.560;2023-12-07T16:59:03;22.20;;;11.63;;
31095;SDS011;17749;51.962;8.560;2023-12-07T17:01:30;27.73;;;11.40;;
31095;SDS011;17749;51.962;8.560;2023-12-07T17:03:57;28.88;;;12.98;;
31095;SDS011;17749;51.962;8.560;2023-12-07T17:06:24;23.20;;;12.10;;
31095;SDS011;17749;51.962;8.560;2023-12-07T17:08:51;23.73;;;12.02;;
31095;SDS011;17749;51.962;8.560;2023-12-07T17:11:40;22.50;;;11.88;;
31095;SDS011;17749;51.962;8.560;2023-12-07T17:14:07;22.83;;;11.85;;
31095;SDS011;17749;51.962;8.560;2023-12-07T17:16:34;22.42;;;12.27;;
31095;SDS011;17749;51.962;8.560;2023-12-07T17:19:01;27.15;;;11.52;;
31095;SDS011;17749;51.962;8.560;2023-12-07T17:21:29;21.40;;;11.88;;
31095;SDS011;17749;51.962;8.560;2023-12-07T17:23:57;23.13;;;11.23;;
31095;SDS011;17749;51.962;8.560;2023-12-07T17:26:25;21.60;;;10.55;;
31095;SDS011;17749;51.962;8.560;2023-12-07T17:29:01;23.77;;;11.93;;
31095;SDS011;17749;51.962;8.560;2023-12-07T17:31:30;23.00;;;11.93;;
31095;SDS011;17749;51.962;8.560;2023-12-07T17:33:57;23.20;;;12.30;;
31095;SDS011;17749;51.962;8.560;2023-12-07T17:36:26;24.77;;;13.68;;
31095;SDS011;17749;51.962;8.560;2023-12-07T17:38:53;23.23;;;11.15;;
31095;SDS011;17749;51.962;8.560;2023-12-07T17:41:21;21.70;;;10.48;;
31095;SDS011;17749;51.962;8.560;2023-12-07T17:43:48;21.92;;;10.70;;
31095;SDS011;17749;51.962;8.560;2023-12-07T17:46:17;23.20;;;10.13;;
31095;SDS011;17749;51.962;8.560;2023-12-07T17:48:44;17.75;;;10.23;;
31095;SDS011;17749;51.962;8.560;2023-12-07T17:51:14;20.30;;;10.38;;
31095;SDS011;17749;51.962;8.560;2023-12-07T17:53:41;20.65;;;10.35;;
31095;SDS011;17749;51.962;8.560;2023-12-07T17:56:08;18.13;;;10.02;;
31095;SDS011;17749;51.962;8.560;2023-12-07T17:58:36;19.15;;;10.38;;
31095;SDS011;17749;51.962;8.560;2023-12-07T18:01:03;20.23;;;10.32;;
31095;SDS011;17749;51.962;8.560;2023-12-07T18:03:30;20.30;;;10.40;;
31095;SDS011;17749;51.962;8.560;2023-12-07T18:05:57;17.88;;;8.80;;
31095;SDS011;17749;51.962;8.560;2023-12-07T18:08:25;23.95;;;10.38;;
31095;SDS011;17749;51.962;8.560;2023-12-07T18:10:52;18.60;;;9.38;;
31095;SDS011;17749;51.962;8.560;2023-12-07T18:13:19;18.42;;;9.65;;
31095;SDS011;17749;51.962;8.560;2023-12-07T18:15:46;18.05;;;10.43;;
31095;SDS011;17749;51.962;8.560;2023-12-07T18:18:13;20.88;;;10.13;;
31095;SDS011;17749;51.962;8.560;2023-12-07T18:20:41;23.60;;;10.55;;
31095;SDS011;17749;51.962;8.560;2023-12-07T18:23:09;20.83;;;10.25;;
31095;SDS011;17749;51.962;8.560;2023-12-07T18:25:36;18.60;;;9.20;;
31095;SDS011;17749;51.962;8.560;2023-12-07T18:28:04;20.50;;;10.13;;
31095;SDS011;17749;51.962;8.560;2023-12-07T18:30:31;22.73;;;9.95;;
31095;SDS011;17749;51.962;8.560;2023-12-07T18:35:38;19.50;;;9.43;;
31095;SDS011;17749;51.962;8.560;2023-12-07T18:38:05;17.65;;;9.32;;
31095;SDS011;17749;51.962;8.560;2023-12-07T18:40:34;19.50;;;9.70;;
31095;SDS011;17749;51.962;8.560;2023-12-07T18:43:02;20.73;;;10.05;;
31095;SDS011;17749;51.962;8.560;2023-12-07T18:45:29;24.90;;;12.10;;
31095;SDS011;17749;51.962;8.560;2023-12-07T18:47:56;36.30;;;13.80;;
31095;SDS011;17749;51.962;8.560;2023-12-07T18:50:23;28.83;;;13.88;;
31095;SDS011;17749;51.962;8.560;2023-12-07T18:52:51;21.85;;;11.75;;
31095;SDS011;17749;51.962;8.560;2023-12-07T18:55:18;24.27;;;11.23;;
31095;SDS011;17749;51.962;8.560;2023-12-07T18:57:45;21.15;;;11.40;;
31095;SDS011;17749;51.962;8.560;2023-12-07T19:00:13;27.63;;;13.07;;
31095;SDS011;17749;51.962;8.560;2023-12-07T19:02:48;23.52;;;10.90;;
31095;SDS011;17749;51.962;8.560;2023-12-07T19:05:16;19.50;;;10.80;;
31095;SDS011;17749;51.962;8.560;2023-12-07T19:07:46;25.05;;;13.40;;
31095;SDS011;17749;51.962;8.560;2023-12-07T19:10:13;27.60;;;11.43;;
31095;SDS011;17749;51.962;8.560;2023-12-07T19:12:41;21.17;;;11.15;;
31095;SDS011;17749;51.962;8.560;2023-12-07T19:15:09;23.00;;;10.85;;
31095;SDS011;17749;51.962;8.560;2023-12-07T19:17:36;23.88;;;11.73;;
31095;SDS011;17749;51.962;8.560;2023-12-07T19:20:04;20.17;;;10.20;;
31095;SDS011;17749;51.962;8.560;2023-12-07T19:22:32;15.25;;;9.23;;
31095;SDS011;17749;51.962;8.560;2023-12-07T19:25:00;21.65;;;10.50;;
31095;SDS011;17749;51.962;8.560;2023-12-07T19:27:27;23.17;;;9.90;;
31095;SDS011;17749;51.962;8.560;2023-12-07T19:29:55;26.60;;;11.98;;
31095;SDS011;17749;51.962;8.560;2023-12-07T19:32:22;21.05;;;11.50;;
31095;SDS011;17749;51.962;8.560;2023-12-07T19:34:58;25.85;;;11.88;;
31095;SDS011;17749;51.962;8.560;2023-12-07T19:37:25;32.50;;;15.98;;
31095;SDS011;17749;51.962;8.560;2023-12-07T19:39:53;20.55;;;10.35;;
31095;SDS011;17749;51.962;8.560;2023-12-07T19:42:20;27.08;;;11.88;;
31095;SDS011;17749;51.962;8.560;2023-12-07T19:44:46;24.40;;;12.48;;
31095;SDS011;17749;51.962;8.560;2023-12-07T19:47:13;23.02;;;11.88;;
31095;SDS011;17749;51.962;8.560;2023-12-07T19:49:41;22.55;;;11.10;;
31095;SDS011;17749;51.962;8.560;2023-12-07T19:52:08;24.02;;;11.35;;
31095;SDS011;17749;51.962;8.560;2023-12-07T19:54:37;24.23;;;12.23;;
31095;SDS011;17749;51.962;8.560;2023-12-07T19:57:05;26.77;;;12.02;;
31095;SDS011;17749;51.962;8.560;2023-12-07T19:59:32;25.83;;;12.18;;
31095;SDS011;17749;51.962;8.560;2023-12-07T20:02:00;24.77;;;12.30;;
31095;SDS011;17749;51.962;8.560;2023-12-07T20:04:27;24.15;;;11.85;;
31095;SDS011;17749;51.962;8.560;2023-12-07T20:06:54;28.08;;;13.73;;
31095;SDS011;17749;51.962;8.560;2023-12-07T20:09:21;27.63;;;12.70;;
31095;SDS011;17749;51.962;8.560;2023-12-07T20:11:48;26.17;;;12.25;;
31095;SDS011;17749;51.962;8.560;2023-12-07T20:14:16;30.25;;;13.95;;
31095;SDS011;17749;51.962;8.560;2023-12-07T20:16:44;26.63;;;13.10;;
31095;SDS011;17749;51.962;8.560;2023-12-07T20:19:12;32.90;;;13.80;;
31095;SDS011;17749;51.962;8.560;2023-12-07T20:21:42;29.13;;;13.90;;
31095;SDS011;17749;51.962;8.560;2023-12-07T20:24:10;29.23;;;13.32;;
31095;SDS011;17749;51.962;8.560;2023-12-07T20:26:39;29.13;;;15.38;;
31095;SDS011;17749;51.962;8.560;2023-12-07T20:29:06;30.92;;;15.38;;
31095;SDS011;17749;51.962;8.560;2023-12-07T20:31:34;33.60;;;16.52;;
31095;SDS011;17749;51.962;8.560;2023-12-07T20:34:01;29.73;;;13.18;;
31095;SDS011;17749;51.962;8.560;2023-12-07T20:36:31;32.08;;;14.25;;
31095;SDS011;17749;51.962;8.560;2023-12-07T20:38:58;33.50;;;15.07;;
31095;SDS011;17749;51.962;8.560;2023-12-07T20:41:25;28.52;;;13.13;;
31095;SDS011;17749;51.962;8.560;2023-12-07T20:43:52;33.42;;;15.32;;